createdAt,value
2018-12-08T00:01:16.443Z,7.80
2018-12-08T00:03:45.249Z,7.70
2018-12-08T00:06:15.193Z,7.60
2018-12-08T00:08:44.037Z,7.60
2018-12-08T00:11:12.854Z,7.60
2018-12-08T00:13:41.679Z,7.60
2018-12-08T00:16:10.525Z,7.60
2018-12-08T00:18:39.342Z,7.50
2018-12-08T00:21:08.167Z,7.50
2018-12-08T00:23:37.009Z,7.50
2018-12-08T00:26:05.906Z,7.50
2018-12-08T00:28:34.712Z,7.50
2018-12-08T00:31:14.726Z,7.50
2018-12-08T00:33:43.554Z,7.40
2018-12-08T00:36:13.521Z,7.40
2018-12-08T00:38:42.325Z,7.40
2018-12-08T00:41:11.156Z,7.40
2018-12-08T00:43:39.953Z,7.40
2018-12-08T00:46:08.761Z,7.40
2018-12-08T00:48:37.557Z,7.40
2018-12-08T00:51:06.367Z,7.50
2018-12-08T00:53:35.284Z,7.50
2018-12-08T00:56:04.111Z,7.60
2018-12-08T00:58:32.916Z,7.60
2018-12-08T01:01:01.690Z,7.70
2018-12-08T01:03:32.280Z,7.70
2018-12-08T01:06:01.093Z,7.80
2018-12-08T01:08:29.889Z,7.70
2018-12-08T01:10:58.793Z,7.70
2018-12-08T01:13:27.685Z,7.70
2018-12-08T01:15:56.476Z,7.70
2018-12-08T01:18:25.345Z,7.60
2018-12-08T01:20:54.251Z,7.60
2018-12-08T01:23:23.201Z,7.60
2018-12-08T01:25:52.018Z,7.60
2018-12-08T01:28:20.832Z,7.70
2018-12-08T01:30:49.724Z,7.70
2018-12-08T01:33:18.521Z,7.70
2018-12-08T01:35:47.341Z,7.70
2018-12-08T01:38:16.235Z,7.70
2018-12-08T01:40:45.064Z,7.70
2018-12-08T01:43:13.969Z,7.70
2018-12-08T01:45:42.769Z,7.70
2018-12-08T01:48:11.705Z,7.70
2018-12-08T01:50:40.534Z,7.60
2018-12-08T01:53:09.391Z,7.50
2018-12-08T01:55:38.203Z,7.40
2018-12-08T01:58:07.126Z,7.30
2018-12-08T02:00:36.236Z,7.30
2018-12-08T02:03:05.212Z,7.30
2018-12-08T02:05:34.164Z,7.30
2018-12-08T02:08:03.621Z,7.30
2018-12-08T02:10:34.409Z,7.30
2018-12-08T02:13:03.362Z,7.30
2018-12-08T02:15:32.196Z,7.30
2018-12-08T02:18:01.024Z,7.30
2018-12-08T02:20:31.008Z,7.30
2018-12-08T02:22:59.897Z,7.30
2018-12-08T02:25:28.830Z,7.20
2018-12-08T02:27:57.677Z,7.20
2018-12-08T02:30:26.584Z,7.10
2018-12-08T02:32:55.612Z,7.10
2018-12-08T02:35:24.414Z,7.00
2018-12-08T02:37:53.244Z,7.00
2018-12-08T02:40:22.182Z,7.00
2018-12-08T02:42:51.158Z,7.00
2018-12-08T02:45:20.915Z,6.90
2018-12-08T02:47:49.730Z,6.90
2018-12-08T02:50:18.567Z,6.90
2018-12-08T02:52:47.457Z,6.90
2018-12-08T02:55:16.402Z,6.90
2018-12-08T02:57:45.275Z,6.90
2018-12-08T03:00:14.109Z,6.90
2018-12-08T03:02:43.097Z,6.90
2018-12-08T03:05:12.076Z,7.00
2018-12-08T03:07:40.915Z,6.90
2018-12-08T03:10:09.836Z,7.00
2018-12-08T03:12:39.750Z,7.00
2018-12-08T03:15:08.705Z,7.00
2018-12-08T03:17:37.597Z,7.00
2018-12-08T03:20:06.555Z,7.00
2018-12-08T03:22:35.562Z,6.90
2018-12-08T03:25:04.698Z,6.90
2018-12-08T03:27:34.810Z,6.90
2018-12-08T03:30:04.394Z,6.90
2018-12-08T03:32:33.247Z,6.90
2018-12-08T03:35:02.051Z,6.80
2018-12-08T03:37:30.900Z,6.80
2018-12-08T03:39:59.831Z,6.80
2018-12-08T03:42:28.909Z,6.80
2018-12-08T03:44:57.770Z,6.70
2018-12-08T03:47:26.563Z,6.70
2018-12-08T03:49:55.423Z,6.70
2018-12-08T03:52:24.253Z,6.70
2018-12-08T03:54:53.100Z,6.70
2018-12-08T03:57:21.906Z,6.70
2018-12-08T03:59:50.704Z,6.70
2018-12-08T04:02:19.604Z,6.70
2018-12-08T04:04:48.446Z,6.70
2018-12-08T04:07:17.281Z,6.80
2018-12-08T04:09:46.180Z,6.70
2018-12-08T04:12:15.000Z,6.70
2018-12-08T04:14:43.848Z,6.80
2018-12-08T04:17:12.672Z,6.80
2018-12-08T04:19:41.594Z,6.80
2018-12-08T04:22:10.384Z,6.80
2018-12-08T04:24:41.152Z,6.70
2018-12-08T04:27:09.941Z,6.80
2018-12-08T04:29:38.745Z,6.70
2018-12-08T04:32:07.661Z,6.80
2018-12-08T04:34:36.471Z,6.80
2018-12-08T04:37:05.356Z,6.80
2018-12-08T04:39:34.244Z,6.80
2018-12-08T04:42:03.125Z,6.70
2018-12-08T04:44:31.940Z,6.80
2018-12-08T04:47:00.760Z,6.80
2018-12-08T04:49:29.569Z,6.70
2018-12-08T04:51:58.345Z,6.80
2018-12-08T04:54:27.248Z,6.70
2018-12-08T04:56:56.021Z,6.70
2018-12-08T04:59:24.823Z,6.70
2018-12-08T05:01:54.357Z,6.80
2018-12-08T05:04:23.196Z,6.80
2018-12-08T05:06:51.987Z,6.80
2018-12-08T05:09:20.806Z,6.70
2018-12-08T05:11:49.710Z,6.80
2018-12-08T05:14:18.505Z,6.80
2018-12-08T05:16:47.400Z,6.90
2018-12-08T05:19:16.294Z,6.90
2018-12-08T05:21:45.132Z,7.00
2018-12-08T05:24:13.970Z,7.00
2018-12-08T05:26:42.848Z,7.10
2018-12-08T05:29:11.688Z,7.10
2018-12-08T05:31:40.558Z,7.10
2018-12-08T05:34:09.481Z,7.10
2018-12-08T05:36:38.452Z,7.10
2018-12-08T05:39:07.662Z,7.10
2018-12-08T05:41:36.449Z,7.10
2018-12-08T05:44:05.281Z,7.10
2018-12-08T05:46:34.093Z,7.10
2018-12-08T05:49:03.087Z,7.10
2018-12-08T05:51:31.887Z,7.10
2018-12-08T05:54:00.707Z,7.20
2018-12-08T05:56:29.609Z,7.20
2018-12-08T05:58:58.395Z,7.30
2018-12-08T06:01:27.399Z,7.30
2018-12-08T06:03:56.197Z,7.40
2018-12-08T06:06:25.089Z,7.40
2018-12-08T06:08:53.995Z,7.40
2018-12-08T06:11:22.903Z,7.50
2018-12-08T06:13:51.738Z,7.50
2018-12-08T06:16:20.533Z,7.50
2018-12-08T06:18:49.390Z,7.50
2018-12-08T06:21:18.208Z,7.50
2018-12-08T06:23:47.036Z,7.50
2018-12-08T06:26:19.469Z,7.50
2018-12-08T06:28:51.237Z,7.50
2018-12-08T06:31:20.153Z,7.50
2018-12-08T06:33:48.956Z,7.50
2018-12-08T06:36:17.756Z,7.50
2018-12-08T06:38:46.641Z,7.50
2018-12-08T06:41:15.448Z,7.60
2018-12-08T06:43:44.334Z,7.60
2018-12-08T06:46:13.164Z,7.60
2018-12-08T06:48:42.017Z,7.70
2018-12-08T06:51:12.372Z,7.70
2018-12-08T06:53:41.170Z,7.70
2018-12-08T06:56:09.996Z,7.80
2018-12-08T06:58:38.818Z,7.80
2018-12-08T07:01:07.606Z,7.80
2018-12-08T07:03:36.464Z,7.80
2018-12-08T07:06:06.346Z,7.80
2018-12-08T07:08:35.150Z,7.90
2018-12-08T07:11:04.114Z,7.90
2018-12-08T07:13:32.964Z,7.80
2018-12-08T07:16:01.910Z,7.80
2018-12-08T07:18:30.744Z,7.80
2018-12-08T07:20:59.548Z,7.80
2018-12-08T07:23:28.506Z,7.70
2018-12-08T07:25:57.242Z,7.70
2018-12-08T07:28:26.065Z,7.60
2018-12-08T07:30:54.889Z,7.60
2018-12-08T07:33:23.694Z,7.60
2018-12-08T07:35:52.609Z,7.50
2018-12-08T07:38:21.482Z,7.50
2018-12-08T07:40:50.409Z,7.50
2018-12-08T07:43:19.263Z,7.60
2018-12-08T07:45:48.062Z,7.60
2018-12-08T07:48:16.927Z,7.60
2018-12-08T07:50:45.744Z,7.60
2018-12-08T07:53:14.612Z,7.60
2018-12-08T07:55:43.446Z,7.50
2018-12-08T07:58:12.316Z,7.50
2018-12-08T08:00:41.350Z,7.50
2018-12-08T08:03:10.133Z,7.40
2018-12-08T08:05:39.008Z,7.30
2018-12-08T08:08:07.914Z,7.20
2018-12-08T08:10:36.720Z,7.10
2018-12-08T08:13:05.653Z,7.10
2018-12-08T08:15:34.446Z,7.10
2018-12-08T08:18:03.332Z,7.10
2018-12-08T08:20:32.270Z,7.10
2018-12-08T08:23:01.067Z,7.10
2018-12-08T08:25:31.972Z,7.10
2018-12-08T08:28:00.896Z,7.20
2018-12-08T08:30:29.936Z,7.20
2018-12-08T08:32:58.758Z,7.20
2018-12-08T08:35:37.938Z,7.20
2018-12-08T08:38:09.973Z,7.30
2018-12-08T08:40:38.980Z,7.30
2018-12-08T08:43:07.972Z,7.30
2018-12-08T08:45:36.810Z,7.30
2018-12-08T08:48:05.612Z,7.20
2018-12-08T08:50:34.507Z,7.20
2018-12-08T08:53:05.548Z,7.10
2018-12-08T08:55:34.391Z,7.20
2018-12-08T08:58:03.257Z,7.30
2018-12-08T09:00:32.090Z,7.30
2018-12-08T09:03:00.977Z,7.40
2018-12-08T09:05:29.789Z,7.60
2018-12-08T09:07:58.667Z,7.80
2018-12-08T09:10:27.477Z,7.80
2018-12-08T09:12:56.391Z,7.70
2018-12-08T09:15:25.201Z,7.70
2018-12-08T09:17:54.166Z,7.70
2018-12-08T09:20:23.046Z,7.70
2018-12-08T09:22:51.869Z,7.60
2018-12-08T09:25:20.871Z,7.50
2018-12-08T09:27:49.750Z,7.40
2018-12-08T09:30:18.613Z,7.30
2018-12-08T09:32:47.639Z,7.20
2018-12-08T09:35:16.438Z,7.10
2018-12-08T09:37:45.309Z,7.10
2018-12-08T09:40:14.181Z,7.00
2018-12-08T09:42:43.119Z,7.00
2018-12-08T09:45:11.937Z,7.10
2018-12-08T09:47:40.801Z,7.10
2018-12-08T09:50:09.637Z,7.20
2018-12-08T09:52:38.510Z,7.20
2018-12-08T09:55:07.409Z,7.20
2018-12-08T09:57:36.301Z,7.30
2018-12-08T10:00:05.827Z,7.40
2018-12-08T10:02:34.680Z,7.50
2018-12-08T10:05:03.845Z,7.60
2018-12-08T10:07:32.815Z,7.70
2018-12-08T10:10:01.869Z,7.90
2018-12-08T10:12:31.094Z,8.40
2018-12-08T10:15:00.901Z,9.10
2018-12-08T10:17:29.736Z,9.70
2018-12-08T10:19:58.658Z,9.90
2018-12-08T10:22:28.006Z,9.80
2018-12-08T10:24:57.820Z,9.90
2018-12-08T10:27:26.643Z,10.10
2018-12-08T10:29:55.548Z,10.20
2018-12-08T10:32:24.522Z,10.30
2018-12-08T10:34:53.416Z,10.40
2018-12-08T10:37:22.310Z,10.60
2018-12-08T10:39:52.383Z,10.70
2018-12-08T10:42:21.322Z,10.60
2018-12-08T10:44:50.189Z,10.40
2018-12-08T10:47:18.994Z,10.20
2018-12-08T10:49:47.802Z,10.00
2018-12-08T10:52:16.618Z,9.90
2018-12-08T10:54:47.362Z,9.90
2018-12-08T10:57:16.176Z,10.00
2018-12-08T10:59:45.000Z,10.30
2018-12-08T11:02:19.139Z,10.50
2018-12-08T11:04:48.017Z,10.50
2018-12-08T11:07:16.848Z,10.70
2018-12-08T11:09:45.812Z,10.70
2018-12-08T11:12:14.660Z,10.80
2018-12-08T11:14:43.558Z,10.40
2018-12-08T11:17:12.740Z,9.90
2018-12-08T11:19:41.524Z,9.60
2018-12-08T11:22:10.316Z,9.50
2018-12-08T11:24:39.285Z,9.50
2018-12-08T11:27:08.176Z,9.50
2018-12-08T11:29:37.064Z,9.70
2018-12-08T11:32:05.901Z,10.00
2018-12-08T11:34:34.776Z,10.60
2018-12-08T11:37:03.636Z,11.20
2018-12-08T11:39:33.106Z,11.70
2018-12-08T11:42:02.182Z,12.00
2018-12-08T11:44:31.377Z,12.20
2018-12-08T11:47:01.515Z,12.40
2018-12-08T11:49:30.320Z,12.60
2018-12-08T11:51:59.146Z,12.90
2018-12-08T11:54:27.966Z,13.10
2018-12-08T11:56:56.834Z,13.20
2018-12-08T11:59:25.627Z,13.20
2018-12-08T12:01:54.480Z,13.30
2018-12-08T12:04:23.276Z,13.30
2018-12-08T12:06:52.094Z,12.90
2018-12-08T12:09:20.880Z,12.00
2018-12-08T12:11:49.688Z,11.50
2018-12-08T12:14:18.572Z,11.40
2018-12-08T12:16:47.446Z,11.10
2018-12-08T12:19:16.291Z,10.70
2018-12-08T12:21:45.171Z,10.30
2018-12-08T12:24:13.968Z,10.00
2018-12-08T12:26:42.802Z,9.70
2018-12-08T12:29:11.632Z,10.00
2018-12-08T12:31:40.476Z,10.70
2018-12-08T12:34:09.272Z,11.30
2018-12-08T12:36:38.186Z,12.00
2018-12-08T12:39:07.092Z,12.40
2018-12-08T12:41:37.861Z,12.60
2018-12-08T12:44:06.662Z,12.60
2018-12-08T12:46:35.662Z,12.60
2018-12-08T12:49:04.998Z,12.20
2018-12-08T12:51:33.902Z,11.80
2018-12-08T12:54:02.722Z,11.50
2018-12-08T12:56:31.569Z,11.00
2018-12-08T12:59:00.372Z,10.80
2018-12-08T13:01:29.708Z,10.60
2018-12-08T13:03:59.296Z,10.40
2018-12-08T13:06:28.232Z,10.30
2018-12-08T13:08:57.504Z,10.10
2018-12-08T13:11:26.487Z,10.00
2018-12-08T13:13:55.295Z,9.90
2018-12-08T13:16:24.123Z,9.70
2018-12-08T13:18:53.065Z,9.60
2018-12-08T13:21:21.912Z,9.50
2018-12-08T13:23:50.725Z,9.30
2018-12-08T13:26:22.626Z,9.20
2018-12-08T13:28:51.417Z,9.00
2018-12-08T13:31:20.305Z,8.90
2018-12-08T13:33:53.031Z,8.90
2018-12-08T13:36:21.934Z,8.80
2018-12-08T13:38:50.748Z,8.70
2018-12-08T13:41:19.573Z,8.70
2018-12-08T13:43:54.572Z,8.60
2018-12-08T13:46:23.469Z,8.60
2018-12-08T13:48:52.282Z,8.60
2018-12-08T13:51:21.224Z,8.60
2018-12-08T13:53:50.161Z,8.50
2018-12-08T13:56:19.073Z,8.50
2018-12-08T13:58:47.921Z,8.50
2018-12-08T14:01:16.749Z,8.50
2018-12-08T14:03:45.582Z,8.50
2018-12-08T14:06:14.413Z,8.60
2018-12-08T14:08:43.241Z,8.60
2018-12-08T14:11:12.041Z,8.60
2018-12-08T14:13:40.839Z,8.60
2018-12-08T14:16:09.755Z,8.70
2018-12-08T14:18:38.645Z,8.70
2018-12-08T14:21:07.423Z,8.70
2018-12-08T14:23:36.229Z,8.70
2018-12-08T14:26:06.095Z,8.70
2018-12-08T14:28:35.001Z,8.70
2018-12-08T14:31:03.913Z,8.70
2018-12-08T14:33:32.696Z,8.70
2018-12-08T14:36:01.595Z,8.70
2018-12-08T14:38:30.391Z,8.70
2018-12-08T14:40:59.189Z,8.70
2018-12-08T14:43:28.020Z,8.70
2018-12-08T14:45:56.831Z,8.70
2018-12-08T14:48:25.639Z,8.70
2018-12-08T14:50:54.477Z,8.70
2018-12-08T14:53:23.361Z,8.60
2018-12-08T14:55:52.607Z,8.60
2018-12-08T14:58:21.408Z,8.70
2018-12-08T15:00:51.802Z,8.70
2018-12-08T15:03:20.604Z,8.70
2018-12-08T15:05:49.554Z,8.60
2018-12-08T15:08:18.439Z,8.60
2018-12-08T15:10:47.228Z,8.60
2018-12-08T15:13:16.048Z,8.50
2018-12-08T15:15:44.868Z,8.50
2018-12-08T15:18:13.668Z,8.50
2018-12-08T15:20:42.491Z,8.60
2018-12-08T15:23:11.367Z,8.60
2018-12-08T15:25:40.193Z,8.50
2018-12-08T15:28:08.985Z,8.40
2018-12-08T15:30:37.887Z,8.30
2018-12-08T15:33:06.761Z,8.30
2018-12-08T15:35:35.815Z,8.20
2018-12-08T15:38:04.800Z,8.20
2018-12-08T15:40:33.824Z,8.20
2018-12-08T15:43:02.797Z,8.20
2018-12-08T15:45:31.748Z,8.20
2018-12-08T15:48:00.705Z,8.30
2018-12-08T15:50:29.523Z,8.30
2018-12-08T15:52:58.416Z,8.30
2018-12-08T15:55:27.222Z,8.40
2018-12-08T15:57:57.105Z,8.40
2018-12-08T16:00:25.918Z,8.50
2018-12-08T16:02:54.839Z,8.50
2018-12-08T16:05:23.733Z,8.50
2018-12-08T16:07:52.663Z,8.50
2018-12-08T16:10:22.638Z,8.50
2018-12-08T16:12:51.450Z,8.50
2018-12-08T16:15:20.380Z,8.60
2018-12-08T16:17:49.185Z,8.60
2018-12-08T16:20:18.197Z,8.70
2018-12-08T16:22:47.112Z,8.70
2018-12-08T16:25:16.000Z,8.70
2018-12-08T16:27:44.905Z,8.70
2018-12-08T16:30:13.907Z,8.80
2018-12-08T16:32:42.801Z,8.80
2018-12-08T16:35:11.825Z,8.80
2018-12-08T16:37:40.705Z,8.80
2018-12-08T16:40:09.633Z,8.90
2018-12-08T16:42:40.063Z,8.90
2018-12-08T16:45:09.257Z,8.90
2018-12-08T16:47:38.065Z,9.00
2018-12-08T16:50:08.713Z,9.00
2018-12-08T16:52:37.696Z,9.00
2018-12-08T16:55:06.737Z,9.00
2018-12-08T16:57:36.661Z,9.00
2018-12-08T17:00:06.010Z,9.00
2018-12-08T17:02:34.941Z,9.00
2018-12-08T17:05:04.522Z,9.00
2018-12-08T17:07:33.468Z,9.10
2018-12-08T17:10:02.265Z,9.10
2018-12-08T17:12:31.201Z,9.10
2018-12-08T17:15:00.180Z,9.10
2018-12-08T17:17:29.097Z,9.20
2018-12-08T17:19:58.048Z,9.20
2018-12-08T17:22:26.850Z,9.20
2018-12-08T17:24:55.663Z,9.20
2018-12-08T17:27:24.596Z,9.20
2018-12-08T17:29:53.414Z,9.20
2018-12-08T17:32:22.196Z,9.20
2018-12-08T17:34:51.018Z,9.20
2018-12-08T17:37:19.827Z,9.20
2018-12-08T17:39:49.288Z,9.20
2018-12-08T17:42:18.197Z,9.20
2018-12-08T17:44:47.074Z,9.30
2018-12-08T17:47:16.040Z,9.30
2018-12-08T17:49:45.032Z,9.30
2018-12-08T17:52:13.924Z,9.30
2018-12-08T17:54:42.950Z,9.30
2018-12-08T17:57:11.808Z,9.40
2018-12-08T17:59:40.766Z,9.40
2018-12-08T18:02:09.886Z,9.40
2018-12-08T18:04:38.891Z,9.40
2018-12-08T18:07:08.020Z,9.40
2018-12-08T18:09:36.880Z,9.40
2018-12-08T18:12:06.026Z,9.30
2018-12-08T18:14:35.904Z,9.30
2018-12-08T18:17:04.893Z,9.20
2018-12-08T18:19:33.910Z,9.20
2018-12-08T18:22:02.816Z,9.10
2018-12-08T18:24:31.688Z,9.10
2018-12-08T18:27:00.537Z,9.00
2018-12-08T18:29:29.381Z,8.90
2018-12-08T18:31:58.174Z,8.90
2018-12-08T18:34:26.981Z,8.80
2018-12-08T18:36:55.786Z,8.70
2018-12-08T18:39:24.605Z,8.60
2018-12-08T18:41:53.422Z,8.50
2018-12-08T18:44:22.453Z,8.50
2018-12-08T18:46:51.277Z,8.40
2018-12-08T18:49:20.119Z,8.40
2018-12-08T18:51:49.031Z,8.40
2018-12-08T18:54:17.905Z,8.40
2018-12-08T18:56:46.777Z,8.40
2018-12-08T18:59:15.629Z,8.40
2018-12-08T19:01:44.491Z,8.40
2018-12-08T19:04:13.308Z,8.40
2018-12-08T19:06:42.277Z,8.50
2018-12-08T19:09:11.245Z,8.50
2018-12-08T19:11:40.113Z,8.50
2018-12-08T19:14:08.931Z,8.50
2018-12-08T19:16:37.725Z,8.50
2018-12-08T19:19:06.573Z,8.60
2018-12-08T19:21:35.461Z,8.60
2018-12-08T19:24:04.471Z,8.60
2018-12-08T19:26:33.339Z,8.60
2018-12-08T19:29:02.121Z,8.60
2018-12-08T19:31:31.085Z,8.60
2018-12-08T19:33:59.946Z,8.60
2018-12-08T19:36:28.817Z,8.50
2018-12-08T19:38:57.603Z,8.60
2018-12-08T19:41:27.883Z,8.60
2018-12-08T19:43:56.709Z,8.60
2018-12-08T19:46:26.055Z,8.60
2018-12-08T19:48:54.865Z,8.60
2018-12-08T19:51:23.676Z,8.70
2018-12-08T19:53:52.573Z,8.70
2018-12-08T19:56:21.423Z,8.80
2018-12-08T19:58:50.232Z,8.80
2018-12-08T20:01:19.149Z,8.80
2018-12-08T20:03:47.993Z,8.80
2018-12-08T20:06:16.857Z,8.90
2018-12-08T20:08:45.819Z,8.90
2018-12-08T20:11:14.640Z,8.90
2018-12-08T20:13:43.514Z,9.00
2018-12-08T20:16:13.673Z,9.00
2018-12-08T20:18:42.518Z,9.10
2018-12-08T20:21:11.353Z,9.10
2018-12-08T20:23:40.177Z,9.20
2018-12-08T20:26:09.123Z,9.20
2018-12-08T20:28:37.919Z,9.20
2018-12-08T20:31:08.251Z,9.20
2018-12-08T20:33:37.121Z,9.30
2018-12-08T20:36:06.003Z,9.30
2018-12-08T20:38:34.864Z,9.40
2018-12-08T20:41:03.665Z,9.40
2018-12-08T20:43:32.547Z,9.50
2018-12-08T20:46:01.449Z,9.50
2018-12-08T20:48:30.323Z,9.60
2018-12-08T20:50:59.131Z,9.60
2018-12-08T20:53:28.043Z,9.60
2018-12-08T20:55:56.969Z,9.60
2018-12-08T20:58:25.776Z,9.60
2018-12-08T21:00:54.625Z,9.60
2018-12-08T21:03:23.430Z,9.60
2018-12-08T21:05:52.257Z,9.50
2018-12-08T21:08:21.059Z,9.50
2018-12-08T21:10:49.932Z,9.60
2018-12-08T21:13:18.727Z,9.60
2018-12-08T21:15:47.542Z,9.60
2018-12-08T21:18:16.336Z,9.70
2018-12-08T21:20:45.169Z,9.70
2018-12-08T21:23:13.962Z,9.70
2018-12-08T21:25:42.833Z,9.60
2018-12-08T21:28:11.652Z,9.60
2018-12-08T21:30:40.514Z,9.60
2018-12-08T21:33:09.316Z,9.50
2018-12-08T21:35:38.112Z,9.40
2018-12-08T21:38:06.920Z,9.30
2018-12-08T21:40:35.795Z,9.30
2018-12-08T21:43:04.603Z,9.30
2018-12-08T21:45:33.547Z,9.30
2018-12-08T21:48:02.345Z,9.30
2018-12-08T21:50:31.692Z,9.30
2018-12-08T21:53:00.493Z,9.40
2018-12-08T21:55:29.273Z,9.40
2018-12-08T21:57:58.129Z,9.40
2018-12-08T22:00:26.917Z,9.40
2018-12-08T22:02:55.813Z,9.40
2018-12-08T22:05:24.630Z,9.30
2018-12-08T22:07:53.517Z,9.30
2018-12-08T22:10:22.335Z,9.30
2018-12-08T22:12:51.145Z,9.30
2018-12-08T22:15:19.953Z,9.30
2018-12-08T22:17:48.755Z,9.30
2018-12-08T22:20:17.667Z,9.30
2018-12-08T22:22:46.458Z,9.30
2018-12-08T22:25:15.367Z,9.30
2018-12-08T22:27:44.193Z,9.40
2018-12-08T22:30:13.085Z,9.40
2018-12-08T22:32:41.937Z,9.30
2018-12-08T22:35:10.864Z,9.30
2018-12-08T22:37:39.660Z,9.30
2018-12-08T22:40:08.569Z,9.20
2018-12-08T22:42:37.371Z,9.20
2018-12-08T22:45:06.964Z,9.20
2018-12-08T22:47:36.697Z,9.20
2018-12-08T22:50:06.933Z,9.20
2018-12-08T22:52:35.823Z,9.20
2018-12-08T22:55:04.843Z,9.20
2018-12-08T22:57:33.657Z,9.20
2018-12-08T23:00:02.627Z,9.20
2018-12-08T23:02:33.463Z,9.20
2018-12-08T23:05:02.308Z,9.20
2018-12-08T23:07:32.039Z,9.20
2018-12-08T23:10:00.887Z,9.20
2018-12-08T23:12:31.750Z,9.20
2018-12-08T23:15:00.539Z,9.20
2018-12-08T23:17:29.329Z,9.20
2018-12-08T23:19:58.152Z,9.20
2018-12-08T23:22:27.055Z,9.20
2018-12-08T23:24:55.949Z,9.20
2018-12-08T23:27:24.833Z,9.20
2018-12-08T23:29:53.643Z,9.20
2018-12-08T23:32:22.641Z,9.30
2018-12-08T23:34:51.545Z,9.30
2018-12-08T23:37:20.461Z,9.30
2018-12-08T23:39:49.273Z,9.30
2018-12-08T23:42:18.101Z,9.30
2018-12-08T23:44:46.899Z,9.30
2018-12-08T23:47:15.719Z,9.30
2018-12-08T23:49:44.701Z,9.20
2018-12-08T23:52:13.497Z,9.00
2018-12-08T23:54:42.311Z,8.90
2018-12-08T23:57:11.187Z,8.70
2018-12-08T23:59:40.024Z,8.70
